createdAt,value
2023-04-14T00:02:08.490Z,6.17
2023-04-14T00:04:35.879Z,6.43
2023-04-14T00:07:02.547Z,5.57
2023-04-14T00:09:29.993Z,8.23
2023-04-14T00:11:57.393Z,6.27
2023-04-14T00:14:23.944Z,7.10
2023-04-14T00:16:50.743Z,10.37
2023-04-14T00:19:17.281Z,6.57
2023-04-14T00:21:43.835Z,5.90
2023-04-14T00:24:10.359Z,8.67
2023-04-14T00:26:36.810Z,7.17
2023-04-14T00:29:03.505Z,7.53
2023-04-14T00:31:30.277Z,8.00
2023-04-14T00:33:56.853Z,9.20
2023-04-14T00:36:23.274Z,7.13
2023-04-14T00:38:49.887Z,5.33
2023-04-14T00:41:16.338Z,6.63
2023-04-14T00:43:42.834Z,8.97
2023-04-14T00:46:09.682Z,6.13
2023-04-14T00:48:36.706Z,7.80
2023-04-14T00:51:04.158Z,8.07
2023-04-14T00:53:31.859Z,6.57
2023-04-14T00:55:59.179Z,11.43
2023-04-14T00:58:26.275Z,6.40
2023-04-14T01:00:55.719Z,6.27
2023-04-14T01:03:24.558Z,7.83
2023-04-14T01:05:51.714Z,12.80
2023-04-14T01:08:19.451Z,10.00
2023-04-14T01:11:11.800Z,7.63
2023-04-14T01:13:51.128Z,9.60
2023-04-14T01:16:33.672Z,9.07
2023-04-14T01:19:21.929Z,8.73
2023-04-14T01:21:52.336Z,6.07
2023-04-14T01:24:40.874Z,6.20
2023-04-14T01:27:31.203Z,10.37
2023-04-14T01:30:10.000Z,20.93
2023-04-14T01:32:43.035Z,24.73
2023-04-14T01:35:20.943Z,21.87
2023-04-14T01:37:54.136Z,13.93
2023-04-14T01:40:25.945Z,11.13
2023-04-14T01:43:10.263Z,9.23
2023-04-14T01:45:51.415Z,13.57
2023-04-14T01:48:18.997Z,14.33
2023-04-14T01:50:47.168Z,9.97
2023-04-14T01:53:15.737Z,11.90
2023-04-14T01:55:44.249Z,8.73
2023-04-14T01:58:12.241Z,8.37
2023-04-14T02:00:41.050Z,10.93
2023-04-14T02:03:07.968Z,7.87
2023-04-14T02:05:39.967Z,9.53
2023-04-14T02:08:12.587Z,8.30
2023-04-14T02:10:43.100Z,7.77
2023-04-14T02:13:11.392Z,7.53
2023-04-14T02:15:40.578Z,9.67
2023-04-14T02:18:07.876Z,12.60
2023-04-14T02:20:38.095Z,11.00
2023-04-14T02:23:04.634Z,9.23
2023-04-14T02:25:34.836Z,10.10
2023-04-14T02:28:06.514Z,11.73
2023-04-14T02:30:37.815Z,10.37
2023-04-14T02:33:09.591Z,7.70
2023-04-14T02:35:44.604Z,8.53
2023-04-14T02:38:21.975Z,5.67
2023-04-14T02:40:49.584Z,7.33
2023-04-14T02:43:20.667Z,8.33
2023-04-14T02:45:50.682Z,9.33
2023-04-14T02:48:21.352Z,7.93
2023-04-14T02:50:52.750Z,7.03
2023-04-14T02:53:25.151Z,11.60
2023-04-14T02:56:01.562Z,6.47
2023-04-14T02:58:33.473Z,8.97
2023-04-14T03:01:01.409Z,8.13
2023-04-14T03:03:28.976Z,9.90
2023-04-14T03:05:56.193Z,10.13
2023-04-14T03:08:23.764Z,7.90
2023-04-14T03:10:51.615Z,7.50
2023-04-14T03:13:23.839Z,5.63
2023-04-14T03:15:52.798Z,10.47
2023-04-14T03:18:21.697Z,10.97
2023-04-14T03:20:51.702Z,9.47
2023-04-14T03:23:21.813Z,12.73
2023-04-14T03:25:55.179Z,10.10
2023-04-14T03:28:30.347Z,13.60
2023-04-14T03:31:01.308Z,8.50
2023-04-14T03:33:33.997Z,11.27
2023-04-14T03:36:02.010Z,12.33
2023-04-14T03:38:31.718Z,10.93
2023-04-14T03:41:01.200Z,9.10
2023-04-14T03:43:28.532Z,10.50
2023-04-14T03:46:05.138Z,16.97
2023-04-14T03:48:36.673Z,12.20
2023-04-14T03:51:08.437Z,13.80
2023-04-14T03:53:37.617Z,12.27
2023-04-14T03:56:06.501Z,12.77
2023-04-14T03:58:34.156Z,13.43
2023-04-14T04:01:03.410Z,8.30
2023-04-14T04:03:30.802Z,9.77
2023-04-14T04:05:58.549Z,10.40
2023-04-14T04:08:26.584Z,9.07
2023-04-14T04:10:55.472Z,10.07
2023-04-14T04:13:23.858Z,9.17
2023-04-14T04:15:52.035Z,8.03
2023-04-14T04:18:18.943Z,9.97
2023-04-14T04:20:47.007Z,9.50
2023-04-14T04:23:17.948Z,8.67
2023-04-14T04:25:44.786Z,11.60
2023-04-14T04:28:26.886Z,6.43
2023-04-14T04:30:56.424Z,7.93
2023-04-14T04:33:23.365Z,7.13
2023-04-14T04:35:52.468Z,9.30
2023-04-14T04:38:20.124Z,15.60
2023-04-14T04:40:46.682Z,7.60
2023-04-14T04:43:21.841Z,13.10
2023-04-14T04:46:19.276Z,6.77
2023-04-14T04:48:46.433Z,9.57
2023-04-14T04:51:13.189Z,13.33
2023-04-14T04:53:40.512Z,13.93
2023-04-14T04:56:07.324Z,9.83
2023-04-14T04:58:33.755Z,9.20
2023-04-14T05:01:07.030Z,10.03
2023-04-14T05:03:33.519Z,10.27
2023-04-14T05:06:00.327Z,9.90
2023-04-14T05:08:27.029Z,5.03
2023-04-14T05:10:53.515Z,6.67
2023-04-14T05:13:19.968Z,7.23
2023-04-14T05:15:46.515Z,8.97
2023-04-14T05:18:13.134Z,9.40
2023-04-14T05:20:39.752Z,9.43
2023-04-14T05:23:06.594Z,9.47
2023-04-14T05:25:33.147Z,10.13
2023-04-14T05:27:59.612Z,7.10
2023-04-14T05:30:26.546Z,13.00
2023-04-14T05:32:53.092Z,11.50
2023-04-14T05:35:19.611Z,13.77
2023-04-14T05:37:46.102Z,17.23
2023-04-14T05:40:12.900Z,9.53
2023-04-14T05:42:40.910Z,8.90
2023-04-14T05:45:08.019Z,11.60
2023-04-14T05:47:34.502Z,6.43
2023-04-14T05:50:01.001Z,4.97
2023-04-14T05:52:27.502Z,6.63
2023-04-14T05:54:54.006Z,9.90
2023-04-14T05:57:21.248Z,11.23
2023-04-14T05:59:47.687Z,18.93
2023-04-14T06:02:14.290Z,22.07
2023-04-14T06:04:40.892Z,24.27
2023-04-14T06:07:07.449Z,17.03
2023-04-14T06:09:33.895Z,13.97
2023-04-14T06:12:01.402Z,11.47
2023-04-14T06:14:27.840Z,10.27
2023-04-14T06:16:54.918Z,7.53
2023-04-14T06:19:22.131Z,10.23
2023-04-14T06:21:48.629Z,11.03
2023-04-14T06:24:15.303Z,6.50
2023-04-14T06:26:42.088Z,5.97
2023-04-14T06:29:08.677Z,6.43
2023-04-14T06:31:35.917Z,7.53
2023-04-14T06:34:02.453Z,7.97
2023-04-14T06:36:29.093Z,6.23
2023-04-14T06:38:56.982Z,6.13
2023-04-14T06:41:23.559Z,8.60
2023-04-14T06:43:50.312Z,8.67
2023-04-14T06:46:17.458Z,6.67
2023-04-14T06:48:44.040Z,6.90
2023-04-14T06:51:12.240Z,7.23
2023-04-14T06:53:38.770Z,6.43
2023-04-14T06:56:06.690Z,7.43
2023-04-14T06:58:33.499Z,8.97
2023-04-14T07:01:02.118Z,9.47
2023-04-14T07:03:34.311Z,7.80
2023-04-14T07:06:10.068Z,8.50
2023-04-14T07:08:36.658Z,7.10
2023-04-14T07:11:04.827Z,7.77
2023-04-14T07:13:31.955Z,7.57
2023-04-14T07:15:59.341Z,8.97
2023-04-14T07:18:25.902Z,5.30
2023-04-14T07:20:54.059Z,7.37
2023-04-14T07:23:21.402Z,6.90
2023-04-14T07:25:52.690Z,6.13
2023-04-14T07:28:20.558Z,8.50
2023-04-14T07:30:47.018Z,8.23
2023-04-14T07:33:14.213Z,6.20
2023-04-14T07:35:48.252Z,5.77
2023-04-14T07:38:26.357Z,7.83
2023-04-14T07:40:53.008Z,8.80
2023-04-14T07:43:19.563Z,6.43
2023-04-14T07:45:46.038Z,8.70
2023-04-14T07:48:12.706Z,7.00
2023-04-14T07:50:39.252Z,6.83
2023-04-14T07:53:06.788Z,4.80
2023-04-14T07:55:33.245Z,7.17
2023-04-14T07:57:59.777Z,4.03
2023-04-14T08:00:26.644Z,3.83
2023-04-14T08:02:53.627Z,2.73
2023-04-14T08:05:20.296Z,5.17
2023-04-14T08:07:49.448Z,4.13
2023-04-14T08:10:16.019Z,3.73
2023-04-14T08:12:42.487Z,4.80
2023-04-14T08:15:09.644Z,4.63
2023-04-14T08:17:36.489Z,3.27
2023-04-14T08:20:03.093Z,4.87
2023-04-14T08:22:29.531Z,3.87
2023-04-14T08:24:56.066Z,3.77
2023-04-14T08:27:22.569Z,4.00
2023-04-14T08:29:49.039Z,5.60
2023-04-14T08:32:15.678Z,3.07
2023-04-14T08:35:34.887Z,3.80
2023-04-14T08:37:28.778Z,3.33
2023-04-14T08:39:55.252Z,5.03
2023-04-14T08:42:21.950Z,4.83
2023-04-14T08:44:49.242Z,3.90
2023-04-14T08:47:16.412Z,5.57
2023-04-14T08:49:49.840Z,3.63
2023-04-14T08:52:21.943Z,4.10
2023-04-14T08:54:51.275Z,4.33
2023-04-14T08:57:19.532Z,4.13
2023-04-14T08:59:47.303Z,2.10
2023-04-14T09:02:14.377Z,3.87
2023-04-14T09:04:41.205Z,3.37
2023-04-14T09:07:08.097Z,2.23
2023-04-14T09:09:34.735Z,3.03
2023-04-14T09:12:03.677Z,2.80
2023-04-14T09:14:30.444Z,3.07
2023-04-14T09:16:57.483Z,4.50
2023-04-14T09:19:27.200Z,4.57
2023-04-14T09:21:55.623Z,3.83
2023-04-14T09:24:31.779Z,2.77
2023-04-14T09:26:59.607Z,3.00
2023-04-14T09:29:26.289Z,4.07
2023-04-14T09:31:53.046Z,4.60
2023-04-14T09:34:20.821Z,3.10
2023-04-14T09:37:04.679Z,4.20
2023-04-14T09:39:32.544Z,2.20
2023-04-14T09:42:00.235Z,3.90
2023-04-14T09:44:26.882Z,2.70
2023-04-14T09:47:01.202Z,3.30
2023-04-14T09:49:29.141Z,2.50
2023-04-14T09:52:02.875Z,3.87
2023-04-14T09:54:29.348Z,3.70
2023-04-14T09:56:56.653Z,1.53
2023-04-14T09:59:33.950Z,2.40
2023-04-14T10:02:04.799Z,3.63
2023-04-14T10:04:32.122Z,4.93
2023-04-14T10:06:59.158Z,1.77
2023-04-14T10:09:30.798Z,2.60
2023-04-14T10:12:12.284Z,2.07
2023-04-14T10:14:43.973Z,2.40
2023-04-14T10:17:10.761Z,2.27
2023-04-14T10:19:37.957Z,4.40
2023-04-14T10:22:06.134Z,6.27
2023-04-14T10:24:33.274Z,3.83
2023-04-14T10:27:02.931Z,2.33
2023-04-14T10:29:30.875Z,2.03
2023-04-14T10:32:05.849Z,3.50
2023-04-14T10:34:33.263Z,5.50
2023-04-14T10:37:16.321Z,2.80
2023-04-14T10:39:43.046Z,4.27
2023-04-14T10:42:09.889Z,2.73
2023-04-14T10:44:36.613Z,2.50
2023-04-14T10:47:05.613Z,1.73
2023-04-14T10:49:38.173Z,1.93
2023-04-14T10:52:17.132Z,2.60
2023-04-14T10:54:53.157Z,2.73
2023-04-14T10:57:24.097Z,1.40
2023-04-14T10:59:55.132Z,3.43
2023-04-14T11:02:32.329Z,2.57
2023-04-14T11:05:05.259Z,3.83
2023-04-14T11:07:46.170Z,2.07
2023-04-14T11:10:24.688Z,1.17
2023-04-14T11:12:57.464Z,3.17
2023-04-14T11:15:24.172Z,2.00
2023-04-14T11:17:51.130Z,1.80
2023-04-14T11:20:17.837Z,2.10
2023-04-14T11:22:46.081Z,1.87
2023-04-14T11:25:24.524Z,1.40
2023-04-14T11:27:52.064Z,3.43
2023-04-14T11:30:20.696Z,2.40
2023-04-14T11:32:59.901Z,1.50
2023-04-14T11:35:28.194Z,4.30
2023-04-14T11:37:59.818Z,2.10
2023-04-14T11:40:27.406Z,2.87
2023-04-14T11:42:58.781Z,3.40
2023-04-14T11:45:31.767Z,3.00
2023-04-14T11:47:59.159Z,1.40
2023-04-14T11:50:27.281Z,0.70
2023-04-14T11:53:00.023Z,3.13
2023-04-14T11:55:30.085Z,0.80
2023-04-14T11:57:57.214Z,1.53
2023-04-14T12:00:24.506Z,1.73
2023-04-14T12:02:51.614Z,1.43
2023-04-14T12:05:23.563Z,1.60
2023-04-14T12:07:50.290Z,2.50
2023-04-14T12:10:17.732Z,2.03
2023-04-14T12:12:44.307Z,1.77
2023-04-14T12:15:13.517Z,2.60
2023-04-14T12:17:41.279Z,2.63
2023-04-14T12:20:15.730Z,2.13
2023-04-14T12:22:42.311Z,1.80
2023-04-14T12:25:15.280Z,1.20
2023-04-14T12:27:41.795Z,2.37
2023-04-14T12:30:11.620Z,4.70
2023-04-14T12:32:42.150Z,2.20
2023-04-14T12:35:08.987Z,2.73
2023-04-14T12:37:36.039Z,3.37
2023-04-14T12:40:06.414Z,2.57
2023-04-14T12:42:51.593Z,2.10
2023-04-14T12:45:18.271Z,1.77
2023-04-14T12:47:52.997Z,1.63
2023-04-14T12:50:32.546Z,1.93
2023-04-14T12:53:03.384Z,2.73
2023-04-14T12:55:31.572Z,1.00
2023-04-14T12:57:58.875Z,0.83
2023-04-14T13:00:27.449Z,1.70
2023-04-14T13:02:55.766Z,1.80
2023-04-14T13:05:22.716Z,1.47
2023-04-14T13:07:49.230Z,2.30
2023-04-14T13:10:15.870Z,1.63
2023-04-14T13:12:42.994Z,1.33
2023-04-14T13:15:27.970Z,1.17
2023-04-14T13:17:56.482Z,1.43
2023-04-14T13:20:22.947Z,1.43
2023-04-14T13:22:49.456Z,1.07
2023-04-14T13:25:16.005Z,1.87
2023-04-14T13:27:42.489Z,0.77
2023-04-14T13:30:09.458Z,0.97
2023-04-14T13:32:35.968Z,2.50
2023-04-14T13:35:02.559Z,1.53
2023-04-14T13:37:29.062Z,0.60
2023-04-14T13:39:55.716Z,1.10
2023-04-14T13:42:22.161Z,1.57
2023-04-14T13:44:48.669Z,1.83
2023-04-14T13:47:15.154Z,2.33
2023-04-14T13:49:42.249Z,1.73
2023-04-14T13:52:08.725Z,1.67
2023-04-14T13:54:35.429Z,1.40
2023-04-14T13:57:01.883Z,1.80
2023-04-14T13:59:28.338Z,1.97
2023-04-14T14:01:54.966Z,2.37
2023-04-14T14:04:21.737Z,1.20
2023-04-14T14:06:48.408Z,2.37
2023-04-14T14:09:14.895Z,2.70
2023-04-14T14:11:44.072Z,1.07
2023-04-14T14:14:12.792Z,0.70
2023-04-14T14:16:39.303Z,1.33
2023-04-14T14:19:08.194Z,1.60
2023-04-14T14:21:34.690Z,3.53
2023-04-14T14:24:01.596Z,0.90
2023-04-14T14:26:28.422Z,1.00
2023-04-14T14:28:54.900Z,11.53
2023-04-14T14:31:21.492Z,3.33
2023-04-14T14:33:47.962Z,1.93
2023-04-14T14:36:15.362Z,2.63
2023-04-14T14:38:41.818Z,1.70
2023-04-14T14:41:08.315Z,0.87
2023-04-14T14:43:52.780Z,1.77
2023-04-14T14:46:19.364Z,0.93
2023-04-14T14:48:45.983Z,1.83
2023-04-14T14:51:12.482Z,1.77
2023-04-14T14:53:38.875Z,0.80
2023-04-14T14:56:05.702Z,2.80
2023-04-14T14:58:32.147Z,1.90
2023-04-14T15:00:58.719Z,3.63
2023-04-14T15:03:25.584Z,1.33
2023-04-14T15:05:53.351Z,1.53
2023-04-14T15:08:19.818Z,2.37
2023-04-14T15:10:46.435Z,1.23
2023-04-14T15:13:13.171Z,1.20
2023-04-14T15:15:39.592Z,1.20
2023-04-14T15:18:07.236Z,3.63
2023-04-14T15:20:33.866Z,1.57
2023-04-14T15:23:00.325Z,1.80
2023-04-14T15:25:26.773Z,1.57
2023-04-14T15:27:53.199Z,1.53
2023-04-14T15:30:23.471Z,1.73
2023-04-14T15:32:50.980Z,1.73
2023-04-14T15:35:17.726Z,1.47
2023-04-14T15:37:44.157Z,0.77
2023-04-14T15:40:10.944Z,1.40
2023-04-14T15:42:37.659Z,2.63
2023-04-14T15:45:05.251Z,1.83
2023-04-14T15:47:31.802Z,1.10
2023-04-14T15:50:10.032Z,2.70
2023-04-14T15:52:39.561Z,1.93
2023-04-14T15:55:07.177Z,1.27
2023-04-14T15:57:33.596Z,2.10
2023-04-14T16:00:01.905Z,1.03
2023-04-14T16:02:33.169Z,0.60
2023-04-14T16:04:59.832Z,1.67
2023-04-14T16:07:29.085Z,2.43
2023-04-14T16:09:55.683Z,2.07
2023-04-14T16:12:23.269Z,3.80
2023-04-14T16:14:54.172Z,0.93
2023-04-14T16:17:22.011Z,3.33
2023-04-14T16:19:48.582Z,2.40
2023-04-14T16:22:15.525Z,2.30
2023-04-14T16:24:42.170Z,2.13
2023-04-14T16:27:08.764Z,0.80
2023-04-14T16:29:35.545Z,3.07
2023-04-14T16:32:02.172Z,1.37
2023-04-14T16:34:28.970Z,1.37
2023-04-14T16:36:55.708Z,2.40
2023-04-14T16:39:22.377Z,4.00
2023-04-14T16:41:48.950Z,1.50
2023-04-14T16:44:15.586Z,1.20
2023-04-14T16:46:42.192Z,0.83
2023-04-14T16:49:08.845Z,2.10
2023-04-14T16:51:35.393Z,1.90
2023-04-14T16:54:02.408Z,2.50
2023-04-14T16:56:29.794Z,1.67
2023-04-14T16:58:56.429Z,0.93
2023-04-14T17:01:26.265Z,3.03
2023-04-14T17:03:53.231Z,1.93
2023-04-14T17:06:19.956Z,1.87
2023-04-14T17:08:46.856Z,3.27
2023-04-14T17:11:15.018Z,2.53
2023-04-14T17:13:42.525Z,4.60
2023-04-14T17:16:11.121Z,3.80
2023-04-14T17:18:38.146Z,2.10
2023-04-14T17:21:06.102Z,3.93
2023-04-14T17:23:37.023Z,4.37
2023-04-14T17:26:04.407Z,3.80
2023-04-14T17:28:31.068Z,1.97
2023-04-14T17:30:58.926Z,3.80
2023-04-14T17:33:27.315Z,1.57
2023-04-14T17:35:54.972Z,3.10
2023-04-14T17:38:21.736Z,3.13
2023-04-14T17:40:48.328Z,3.10
2023-04-14T17:43:15.423Z,4.63
2023-04-14T17:45:43.887Z,3.87
2023-04-14T17:48:10.818Z,3.17
2023-04-14T17:50:37.925Z,5.03
2023-04-14T17:53:04.777Z,1.73
2023-04-14T17:55:31.734Z,3.93
2023-04-14T17:57:58.690Z,6.33
2023-04-14T18:00:27.483Z,7.07
2023-04-14T18:02:54.115Z,7.30
2023-04-14T18:05:20.867Z,6.37
2023-04-14T18:07:47.459Z,3.63
2023-04-14T18:10:13.948Z,5.63
2023-04-14T18:12:40.600Z,4.43
2023-04-14T18:15:07.501Z,3.63
2023-04-14T18:17:36.327Z,3.40
2023-04-14T18:20:04.140Z,3.67
2023-04-14T18:22:31.451Z,4.07
2023-04-14T18:24:57.911Z,3.87
2023-04-14T18:29:54.537Z,4.87
2023-04-14T18:32:22.277Z,4.63
2023-04-14T18:34:48.762Z,5.17
2023-04-14T18:37:15.790Z,4.37
2023-04-14T18:39:42.705Z,5.40
2023-04-14T18:42:10.065Z,5.30
2023-04-14T18:44:36.760Z,8.20
2023-04-14T18:47:03.230Z,5.87
2023-04-14T18:49:29.856Z,4.80
2023-04-14T18:51:56.643Z,4.67
2023-04-14T18:54:23.273Z,7.33
2023-04-14T18:56:49.785Z,4.80
2023-04-14T18:59:16.230Z,5.33
2023-04-14T19:01:42.839Z,4.47
2023-04-14T19:04:09.427Z,2.67
2023-04-14T19:06:37.391Z,2.97
2023-04-14T19:09:04.511Z,3.23
2023-04-14T19:11:35.992Z,4.37
2023-04-14T19:14:04.524Z,6.77
2023-04-14T19:16:31.403Z,8.67
2023-04-14T19:18:58.661Z,8.87
2023-04-14T19:21:26.075Z,12.97
2023-04-14T19:23:54.405Z,11.23
2023-04-14T19:26:20.988Z,11.20
2023-04-14T19:28:47.453Z,8.57
2023-04-14T19:31:13.945Z,6.87
2023-04-14T19:33:41.725Z,5.60
2023-04-14T19:36:16.025Z,9.33
2023-04-14T19:38:42.839Z,7.33
2023-04-14T19:41:09.648Z,6.00
2023-04-14T19:43:36.475Z,5.90
2023-04-14T19:46:05.073Z,6.60
2023-04-14T19:48:35.106Z,10.37
2023-04-14T19:51:02.332Z,9.50
2023-04-14T19:53:29.188Z,5.60
2023-04-14T19:55:58.060Z,7.17
2023-04-14T19:58:26.738Z,5.63
2023-04-14T20:00:57.183Z,7.00
2023-04-14T20:03:24.552Z,7.00
2023-04-14T20:05:55.918Z,5.07
2023-04-14T20:08:28.985Z,8.30
2023-04-14T20:10:55.500Z,7.87
2023-04-14T20:13:23.249Z,4.77
2023-04-14T20:15:50.665Z,6.93
2023-04-14T20:18:17.860Z,7.50
2023-04-14T20:20:48.584Z,10.47
2023-04-14T20:23:15.787Z,6.83
2023-04-14T20:25:43.140Z,7.40
2023-04-14T20:28:09.860Z,7.97
2023-04-14T20:30:36.515Z,4.73
2023-04-14T20:33:04.411Z,7.37
2023-04-14T20:35:32.624Z,8.70
2023-04-14T20:37:59.503Z,8.07
2023-04-14T20:40:26.340Z,6.57
2023-04-14T20:42:52.860Z,7.53
2023-04-14T20:45:19.997Z,4.33
2023-04-14T20:47:46.819Z,5.87
2023-04-14T20:50:13.408Z,6.47
2023-04-14T20:52:40.379Z,9.23
2023-04-14T20:55:07.347Z,4.13
2023-04-14T20:57:33.963Z,5.83
2023-04-14T21:00:00.426Z,6.47
2023-04-14T21:02:27.498Z,3.83
2023-04-14T21:04:54.104Z,4.47
2023-04-14T21:07:20.588Z,6.27
2023-04-14T21:09:47.050Z,8.77
2023-04-14T21:12:14.813Z,9.13
2023-04-14T21:15:29.674Z,5.20
2023-04-14T21:17:29.959Z,5.67
2023-04-14T21:19:56.638Z,7.13
2023-04-14T21:22:23.230Z,8.53
2023-04-14T21:24:49.778Z,5.53
2023-04-14T21:27:17.331Z,4.83
2023-04-14T21:29:44.750Z,4.27
2023-04-14T21:32:11.612Z,2.90
2023-04-14T21:34:38.246Z,4.00
2023-04-14T21:37:05.064Z,6.47
2023-04-14T21:39:33.136Z,7.00
2023-04-14T21:42:01.377Z,7.67
2023-04-14T21:44:28.209Z,9.37
2023-04-14T21:46:55.505Z,9.73
2023-04-14T21:49:22.467Z,8.47
2023-04-14T21:51:50.918Z,8.03
2023-04-14T21:54:17.482Z,8.07
2023-04-14T21:56:45.002Z,7.43
2023-04-14T21:59:11.874Z,7.13
2023-04-14T22:01:39.058Z,8.23
2023-04-14T22:04:06.388Z,10.47
2023-04-14T22:06:33.916Z,10.23
2023-04-14T22:09:00.549Z,5.47
2023-04-14T22:11:28.690Z,5.57
2023-04-14T22:13:55.537Z,5.77
2023-04-14T22:16:22.176Z,9.83
2023-04-14T22:18:49.147Z,5.17
2023-04-14T22:21:15.730Z,7.13
2023-04-14T22:23:46.671Z,8.67
2023-04-14T22:26:13.503Z,8.20
2023-04-14T22:28:40.651Z,7.37
2023-04-14T22:31:07.766Z,7.73
2023-04-14T22:33:35.780Z,9.70
2023-04-14T22:36:04.393Z,7.73
2023-04-14T22:38:31.025Z,8.97
2023-04-14T22:40:57.539Z,7.70
2023-04-14T22:43:24.116Z,10.93
2023-04-14T22:45:50.956Z,17.23
2023-04-14T22:48:17.554Z,13.93
2023-04-14T22:50:44.084Z,10.90
2023-04-14T22:53:10.802Z,5.57
2023-04-14T22:55:37.269Z,6.83
2023-04-14T22:58:04.132Z,4.83
2023-04-14T23:00:30.608Z,6.70
2023-04-14T23:02:59.262Z,4.83
2023-04-14T23:05:26.051Z,8.07
2023-04-14T23:07:52.697Z,6.23
2023-04-14T23:10:19.221Z,8.03
2023-04-14T23:12:45.714Z,9.47
2023-04-14T23:15:12.298Z,4.93
2023-04-14T23:17:38.872Z,5.70
2023-04-14T23:20:05.939Z,5.60
2023-04-14T23:22:32.859Z,6.53
2023-04-14T23:24:59.822Z,9.43
2023-04-14T23:27:26.308Z,6.73
2023-04-14T23:29:53.534Z,4.97
2023-04-14T23:32:20.053Z,4.73
2023-04-14T23:34:46.656Z,3.67
2023-04-14T23:37:13.171Z,3.93
2023-04-14T23:39:39.626Z,4.30
2023-04-14T23:42:06.602Z,5.80
2023-04-14T23:44:33.071Z,4.37
2023-04-14T23:46:59.615Z,7.13
2023-04-14T23:49:34.764Z,6.60
2023-04-14T23:52:02.139Z,6.57
2023-04-14T23:54:30.750Z,5.27
2023-04-14T23:56:58.097Z,5.23
2023-04-14T23:59:24.538Z,4.60
